sensor_id;sensor_type;location;lat;lon;timestamp;P1;durP1;ratioP1;P2;durP2;ratioP2
11034;SDS011;5571;48.110;-1.706;2023-03-21T00:01:20;10.73;;;3.30;;
11034;SDS011;5571;48.110;-1.706;2023-03-21T00:03:46;7.27;;;2.70;;
11034;SDS011;5571;48.110;-1.706;2023-03-21T00:06:13;14.97;;;3.10;;
11034;SDS011;5571;48.110;-1.706;2023-03-21T00:08:39;9.13;;;2.50;;
11034;SDS011;5571;48.110;-1.706;2023-03-21T00:11:05;7.23;;;2.60;;
11034;SDS011;5571;48.110;-1.706;2023-03-21T00:13:33;10.57;;;3.00;;
11034;SDS011;5571;48.110;-1.706;2023-03-21T00:16:03;8.23;;;4.10;;
11034;SDS011;5571;48.110;-1.706;2023-03-21T00:18:39;7.27;;;2.60;;
11034;SDS011;5571;48.110;-1.706;2023-03-21T00:21:12;15.53;;;3.00;;
11034;SDS011;5571;48.110;-1.706;2023-03-21T00:23:40;7.13;;;2.57;;
11034;SDS011;5571;48.110;-1.706;2023-03-21T00:26:07;6.33;;;2.33;;
11034;SDS011;5571;48.110;-1.706;2023-03-21T00:28:35;6.47;;;2.50;;
11034;SDS011;5571;48.110;-1.706;2023-03-21T00:31:02;4.50;;;2.33;;
11034;SDS011;5571;48.110;-1.706;2023-03-21T00:33:28;10.63;;;3.13;;
11034;SDS011;5571;48.110;-1.706;2023-03-21T00:35:54;6.73;;;2.50;;
11034;SDS011;5571;48.110;-1.706;2023-03-21T00:38:21;5.90;;;2.63;;
11034;SDS011;5571;48.110;-1.706;2023-03-21T00:40:48;8.57;;;2.70;;
11034;SDS011;5571;48.110;-1.706;2023-03-21T00:43:14;8.63;;;2.90;;
11034;SDS011;5571;48.110;-1.706;2023-03-21T00:45:42;8.13;;;3.10;;
11034;SDS011;5571;48.110;-1.706;2023-03-21T00:48:09;8.23;;;3.03;;
11034;SDS011;5571;48.110;-1.706;2023-03-21T00:50:35;11.27;;;2.80;;
11034;SDS011;5571;48.110;-1.706;2023-03-21T00:53:02;9.17;;;2.97;;
11034;SDS011;5571;48.110;-1.706;2023-03-21T00:55:29;6.93;;;2.63;;
11034;SDS011;5571;48.110;-1.706;2023-03-21T00:57:55;6.90;;;2.60;;
11034;SDS011;5571;48.110;-1.706;2023-03-21T01:00:20;8.37;;;3.13;;
11034;SDS011;5571;48.110;-1.706;2023-03-21T01:02:46;7.77;;;2.77;;
11034;SDS011;5571;48.110;-1.706;2023-03-21T01:05:27;8.53;;;2.40;;
11034;SDS011;5571;48.110;-1.706;2023-03-21T01:08:13;6.20;;;2.57;;
11034;SDS011;5571;48.110;-1.706;2023-03-21T01:10:41;5.90;;;2.47;;
11034;SDS011;5571;48.110;-1.706;2023-03-21T01:13:09;8.67;;;2.53;;
11034;SDS011;5571;48.110;-1.706;2023-03-21T01:15:36;10.60;;;2.50;;
11034;SDS011;5571;48.110;-1.706;2023-03-21T01:18:08;9.97;;;2.53;;
11034;SDS011;5571;48.110;-1.706;2023-03-21T01:20:34;9.57;;;2.67;;
11034;SDS011;5571;48.110;-1.706;2023-03-21T01:23:00;4.80;;;2.20;;
11034;SDS011;5571;48.110;-1.706;2023-03-21T01:25:25;7.13;;;2.13;;
11034;SDS011;5571;48.110;-1.706;2023-03-21T01:27:51;10.17;;;2.43;;
11034;SDS011;5571;48.110;-1.706;2023-03-21T01:30:18;9.23;;;2.37;;
11034;SDS011;5571;48.110;-1.706;2023-03-21T01:32:45;6.17;;;2.20;;
11034;SDS011;5571;48.110;-1.706;2023-03-21T01:35:10;8.63;;;2.77;;
11034;SDS011;5571;48.110;-1.706;2023-03-21T01:37:36;6.27;;;2.27;;
11034;SDS011;5571;48.110;-1.706;2023-03-21T01:40:02;7.63;;;2.57;;
11034;SDS011;5571;48.110;-1.706;2023-03-21T01:42:29;7.53;;;2.30;;
11034;SDS011;5571;48.110;-1.706;2023-03-21T01:45:03;4.43;;;2.43;;
11034;SDS011;5571;48.110;-1.706;2023-03-21T01:47:31;5.97;;;2.00;;
11034;SDS011;5571;48.110;-1.706;2023-03-21T01:49:58;7.50;;;2.13;;
11034;SDS011;5571;48.110;-1.706;2023-03-21T01:52:27;6.83;;;2.10;;
11034;SDS011;5571;48.110;-1.706;2023-03-21T01:54:56;8.67;;;2.43;;
11034;SDS011;5571;48.110;-1.706;2023-03-21T01:57:28;8.40;;;2.27;;
11034;SDS011;5571;48.110;-1.706;2023-03-21T02:00:00;6.70;;;2.43;;
11034;SDS011;5571;48.110;-1.706;2023-03-21T02:02:36;10.03;;;2.50;;
11034;SDS011;5571;48.110;-1.706;2023-03-21T02:05:14;7.83;;;2.63;;
11034;SDS011;5571;48.110;-1.706;2023-03-21T02:07:51;6.37;;;2.13;;
11034;SDS011;5571;48.110;-1.706;2023-03-21T02:10:17;9.20;;;2.13;;
11034;SDS011;5571;48.110;-1.706;2023-03-21T02:12:42;9.73;;;2.60;;
11034;SDS011;5571;48.110;-1.706;2023-03-21T02:15:09;4.67;;;2.03;;
11034;SDS011;5571;48.110;-1.706;2023-03-21T02:29:11;7.17;;;2.40;;
11034;SDS011;5571;48.110;-1.706;2023-03-21T02:34:43;7.33;;;2.30;;
11034;SDS011;5571;48.110;-1.706;2023-03-21T02:37:25;6.13;;;2.20;;
11034;SDS011;5571;48.110;-1.706;2023-03-21T02:40:11;5.70;;;2.60;;
11034;SDS011;5571;48.110;-1.706;2023-03-21T02:45:24;11.30;;;2.50;;
11034;SDS011;5571;48.110;-1.706;2023-03-21T02:48:00;5.97;;;2.17;;
11034;SDS011;5571;48.110;-1.706;2023-03-21T02:50:31;6.87;;;2.43;;
11034;SDS011;5571;48.110;-1.706;2023-03-21T02:52:58;6.27;;;2.50;;
11034;SDS011;5571;48.110;-1.706;2023-03-21T02:55:28;7.67;;;2.57;;
11034;SDS011;5571;48.110;-1.706;2023-03-21T02:57:56;7.77;;;2.53;;
11034;SDS011;5571;48.110;-1.706;2023-03-21T03:00:28;7.00;;;2.63;;
11034;SDS011;5571;48.110;-1.706;2023-03-21T03:02:56;10.03;;;2.30;;
11034;SDS011;5571;48.110;-1.706;2023-03-21T03:05:27;9.20;;;2.40;;
11034;SDS011;5571;48.110;-1.706;2023-03-21T03:13:25;4.33;;;2.27;;
11034;SDS011;5571;48.110;-1.706;2023-03-21T03:18:30;5.43;;;2.50;;
11034;SDS011;5571;48.110;-1.706;2023-03-21T03:26:28;7.80;;;2.57;;
11034;SDS011;5571;48.110;-1.706;2023-03-21T03:29:07;9.57;;;2.60;;
11034;SDS011;5571;48.110;-1.706;2023-03-21T03:31:41;6.53;;;2.67;;
11034;SDS011;5571;48.110;-1.706;2023-03-21T03:34:15;6.50;;;2.30;;
11034;SDS011;5571;48.110;-1.706;2023-03-21T03:36:45;10.53;;;2.83;;
11034;SDS011;5571;48.110;-1.706;2023-03-21T03:39:15;9.73;;;2.77;;
11034;SDS011;5571;48.110;-1.706;2023-03-21T03:41:44;6.60;;;2.53;;
11034;SDS011;5571;48.110;-1.706;2023-03-21T03:44:20;12.20;;;3.00;;
11034;SDS011;5571;48.110;-1.706;2023-03-21T03:46:55;11.43;;;3.63;;
11034;SDS011;5571;48.110;-1.706;2023-03-21T03:49:24;8.53;;;2.70;;
11034;SDS011;5571;48.110;-1.706;2023-03-21T03:54:37;12.93;;;3.10;;
11034;SDS011;5571;48.110;-1.706;2023-03-21T03:57:05;11.77;;;2.80;;
11034;SDS011;5571;48.110;-1.706;2023-03-21T03:59:35;10.07;;;2.60;;
11034;SDS011;5571;48.110;-1.706;2023-03-21T04:02:02;8.83;;;2.60;;
11034;SDS011;5571;48.110;-1.706;2023-03-21T04:04:28;7.03;;;2.93;;
11034;SDS011;5571;48.110;-1.706;2023-03-21T04:06:55;6.33;;;2.70;;
11034;SDS011;5571;48.110;-1.706;2023-03-21T04:09:22;10.40;;;3.57;;
11034;SDS011;5571;48.110;-1.706;2023-03-21T04:11:49;4.47;;;2.30;;
11034;SDS011;5571;48.110;-1.706;2023-03-21T04:14:14;9.00;;;2.83;;
11034;SDS011;5571;48.110;-1.706;2023-03-21T04:16:40;9.33;;;2.80;;
11034;SDS011;5571;48.110;-1.706;2023-03-21T04:19:06;8.50;;;2.73;;
11034;SDS011;5571;48.110;-1.706;2023-03-21T04:21:32;7.40;;;2.93;;
11034;SDS011;5571;48.110;-1.706;2023-03-21T04:23:57;6.13;;;2.90;;
11034;SDS011;5571;48.110;-1.706;2023-03-21T04:26:23;8.00;;;3.20;;
11034;SDS011;5571;48.110;-1.706;2023-03-21T04:28:50;9.47;;;2.80;;
11034;SDS011;5571;48.110;-1.706;2023-03-21T04:31:16;7.57;;;2.77;;
11034;SDS011;5571;48.110;-1.706;2023-03-21T04:33:42;11.67;;;3.50;;
11034;SDS011;5571;48.110;-1.706;2023-03-21T04:36:08;6.20;;;2.80;;
11034;SDS011;5571;48.110;-1.706;2023-03-21T04:38:50;5.13;;;2.60;;
11034;SDS011;5571;48.110;-1.706;2023-03-21T04:41:16;9.00;;;3.47;;
11034;SDS011;5571;48.110;-1.706;2023-03-21T04:43:42;7.47;;;2.93;;
11034;SDS011;5571;48.110;-1.706;2023-03-21T04:46:08;12.27;;;3.20;;
11034;SDS011;5571;48.110;-1.706;2023-03-21T04:48:34;7.27;;;3.20;;
11034;SDS011;5571;48.110;-1.706;2023-03-21T04:51:00;7.70;;;2.90;;
11034;SDS011;5571;48.110;-1.706;2023-03-21T04:53:26;8.40;;;3.07;;
11034;SDS011;5571;48.110;-1.706;2023-03-21T04:55:51;8.50;;;3.03;;
11034;SDS011;5571;48.110;-1.706;2023-03-21T04:58:17;7.57;;;3.17;;
11034;SDS011;5571;48.110;-1.706;2023-03-21T05:00:44;10.07;;;3.43;;
11034;SDS011;5571;48.110;-1.706;2023-03-21T05:03:10;10.90;;;3.30;;
11034;SDS011;5571;48.110;-1.706;2023-03-21T05:05:43;9.50;;;3.67;;
11034;SDS011;5571;48.110;-1.706;2023-03-21T05:08:09;11.50;;;3.60;;
11034;SDS011;5571;48.110;-1.706;2023-03-21T05:10:36;8.37;;;4.03;;
11034;SDS011;5571;48.110;-1.706;2023-03-21T05:13:01;5.00;;;3.37;;
11034;SDS011;5571;48.110;-1.706;2023-03-21T05:15:27;7.67;;;3.73;;
11034;SDS011;5571;48.110;-1.706;2023-03-21T05:17:53;7.10;;;3.47;;
11034;SDS011;5571;48.110;-1.706;2023-03-21T05:20:19;8.20;;;3.70;;
11034;SDS011;5571;48.110;-1.706;2023-03-21T05:22:44;7.83;;;3.57;;
11034;SDS011;5571;48.110;-1.706;2023-03-21T05:25:14;7.47;;;3.50;;
11034;SDS011;5571;48.110;-1.706;2023-03-21T05:27:42;7.53;;;3.50;;
11034;SDS011;5571;48.110;-1.706;2023-03-21T05:30:16;6.97;;;3.37;;
11034;SDS011;5571;48.110;-1.706;2023-03-21T05:32:42;8.50;;;3.80;;
11034;SDS011;5571;48.110;-1.706;2023-03-21T05:35:08;10.83;;;3.90;;
11034;SDS011;5571;48.110;-1.706;2023-03-21T05:37:34;11.47;;;3.90;;
11034;SDS011;5571;48.110;-1.706;2023-03-21T05:40:00;7.00;;;3.47;;
11034;SDS011;5571;48.110;-1.706;2023-03-21T05:42:26;10.23;;;3.90;;
11034;SDS011;5571;48.110;-1.706;2023-03-21T05:44:52;6.93;;;3.50;;
11034;SDS011;5571;48.110;-1.706;2023-03-21T05:47:17;5.57;;;3.80;;
11034;SDS011;5571;48.110;-1.706;2023-03-21T05:49:43;12.03;;;4.40;;
11034;SDS011;5571;48.110;-1.706;2023-03-21T05:52:10;7.73;;;4.20;;
11034;SDS011;5571;48.110;-1.706;2023-03-21T05:54:36;7.93;;;4.20;;
11034;SDS011;5571;48.110;-1.706;2023-03-21T05:57:02;11.40;;;4.70;;
11034;SDS011;5571;48.110;-1.706;2023-03-21T05:59:28;7.03;;;3.90;;
11034;SDS011;5571;48.110;-1.706;2023-03-21T06:01:54;7.13;;;4.30;;
11034;SDS011;5571;48.110;-1.706;2023-03-21T06:04:20;8.00;;;4.30;;
11034;SDS011;5571;48.110;-1.706;2023-03-21T06:06:46;16.30;;;4.63;;
11034;SDS011;5571;48.110;-1.706;2023-03-21T06:09:11;13.80;;;5.00;;
11034;SDS011;5571;48.110;-1.706;2023-03-21T06:11:37;8.90;;;4.60;;
11034;SDS011;5571;48.110;-1.706;2023-03-21T06:14:08;10.73;;;5.17;;
11034;SDS011;5571;48.110;-1.706;2023-03-21T06:16:33;9.60;;;4.40;;
11034;SDS011;5571;48.110;-1.706;2023-03-21T06:18:59;9.47;;;4.60;;
11034;SDS011;5571;48.110;-1.706;2023-03-21T06:21:25;7.60;;;4.37;;
11034;SDS011;5571;48.110;-1.706;2023-03-21T06:23:51;7.23;;;4.20;;
11034;SDS011;5571;48.110;-1.706;2023-03-21T06:26:17;8.57;;;4.20;;
11034;SDS011;5571;48.110;-1.706;2023-03-21T06:28:50;8.53;;;4.60;;
11034;SDS011;5571;48.110;-1.706;2023-03-21T06:31:17;5.83;;;4.00;;
11034;SDS011;5571;48.110;-1.706;2023-03-21T06:33:46;6.83;;;4.13;;
11034;SDS011;5571;48.110;-1.706;2023-03-21T06:36:12;10.07;;;5.07;;
11034;SDS011;5571;48.110;-1.706;2023-03-21T06:38:38;4.73;;;4.03;;
11034;SDS011;5571;48.110;-1.706;2023-03-21T06:41:04;7.30;;;4.43;;
11034;SDS011;5571;48.110;-1.706;2023-03-21T06:43:30;8.90;;;4.83;;
11034;SDS011;5571;48.110;-1.706;2023-03-21T06:45:56;6.83;;;4.60;;
11034;SDS011;5571;48.110;-1.706;2023-03-21T06:48:22;7.60;;;4.70;;
11034;SDS011;5571;48.110;-1.706;2023-03-21T06:50:48;7.70;;;4.80;;
11034;SDS011;5571;48.110;-1.706;2023-03-21T06:53:14;8.07;;;4.63;;
11034;SDS011;5571;48.110;-1.706;2023-03-21T06:55:40;11.93;;;4.47;;
11034;SDS011;5571;48.110;-1.706;2023-03-21T06:58:05;7.30;;;4.20;;
11034;SDS011;5571;48.110;-1.706;2023-03-21T07:00:31;7.10;;;4.07;;
11034;SDS011;5571;48.110;-1.706;2023-03-21T07:02:57;8.57;;;4.30;;
11034;SDS011;5571;48.110;-1.706;2023-03-21T07:05:23;5.70;;;4.30;;
11034;SDS011;5571;48.110;-1.706;2023-03-21T07:07:48;5.93;;;4.00;;
11034;SDS011;5571;48.110;-1.706;2023-03-21T07:10:14;5.80;;;4.70;;
11034;SDS011;5571;48.110;-1.706;2023-03-21T07:12:41;5.83;;;3.70;;
11034;SDS011;5571;48.110;-1.706;2023-03-21T07:15:07;5.67;;;3.90;;
11034;SDS011;5571;48.110;-1.706;2023-03-21T07:17:33;5.07;;;3.60;;
11034;SDS011;5571;48.110;-1.706;2023-03-21T07:19:59;5.53;;;4.13;;
11034;SDS011;5571;48.110;-1.706;2023-03-21T07:22:25;6.03;;;4.20;;
11034;SDS011;5571;48.110;-1.706;2023-03-21T07:24:50;6.27;;;3.93;;
11034;SDS011;5571;48.110;-1.706;2023-03-21T07:27:16;7.33;;;3.70;;
11034;SDS011;5571;48.110;-1.706;2023-03-21T07:29:42;5.30;;;3.80;;
11034;SDS011;5571;48.110;-1.706;2023-03-21T07:32:08;5.13;;;3.50;;
11034;SDS011;5571;48.110;-1.706;2023-03-21T07:34:35;5.83;;;3.40;;
11034;SDS011;5571;48.110;-1.706;2023-03-21T07:37:02;5.73;;;2.93;;
11034;SDS011;5571;48.110;-1.706;2023-03-21T07:39:28;7.07;;;3.20;;
11034;SDS011;5571;48.110;-1.706;2023-03-21T07:41:54;3.47;;;3.00;;
11034;SDS011;5571;48.110;-1.706;2023-03-21T07:44:20;6.07;;;3.47;;
11034;SDS011;5571;48.110;-1.706;2023-03-21T07:46:47;6.17;;;2.90;;
11034;SDS011;5571;48.110;-1.706;2023-03-21T07:49:12;4.40;;;3.10;;
11034;SDS011;5571;48.110;-1.706;2023-03-21T07:51:38;5.53;;;2.90;;
11034;SDS011;5571;48.110;-1.706;2023-03-21T07:54:04;5.30;;;3.00;;
11034;SDS011;5571;48.110;-1.706;2023-03-21T07:56:30;3.70;;;2.73;;
11034;SDS011;5571;48.110;-1.706;2023-03-21T07:58:56;5.30;;;3.10;;
11034;SDS011;5571;48.110;-1.706;2023-03-21T08:01:23;2.93;;;2.63;;
11034;SDS011;5571;48.110;-1.706;2023-03-21T08:03:49;3.83;;;2.43;;
11034;SDS011;5571;48.110;-1.706;2023-03-21T08:06:17;3.17;;;2.30;;
11034;SDS011;5571;48.110;-1.706;2023-03-21T08:08:46;4.97;;;2.73;;
11034;SDS011;5571;48.110;-1.706;2023-03-21T08:11:12;2.57;;;2.20;;
11034;SDS011;5571;48.110;-1.706;2023-03-21T08:13:38;2.87;;;2.00;;
11034;SDS011;5571;48.110;-1.706;2023-03-21T08:16:04;3.43;;;2.17;;
11034;SDS011;5571;48.110;-1.706;2023-03-21T08:18:31;4.17;;;2.40;;
11034;SDS011;5571;48.110;-1.706;2023-03-21T08:20:58;3.07;;;2.27;;
11034;SDS011;5571;48.110;-1.706;2023-03-21T08:23:24;3.97;;;2.07;;
11034;SDS011;5571;48.110;-1.706;2023-03-21T08:25:50;5.03;;;2.40;;
11034;SDS011;5571;48.110;-1.706;2023-03-21T08:28:17;7.43;;;2.23;;
11034;SDS011;5571;48.110;-1.706;2023-03-21T08:30:43;6.30;;;2.33;;
11034;SDS011;5571;48.110;-1.706;2023-03-21T08:33:09;4.50;;;2.10;;
11034;SDS011;5571;48.110;-1.706;2023-03-21T08:35:34;7.17;;;2.13;;
11034;SDS011;5571;48.110;-1.706;2023-03-21T08:38:01;13.27;;;2.93;;
11034;SDS011;5571;48.110;-1.706;2023-03-21T08:40:27;8.47;;;2.57;;
11034;SDS011;5571;48.110;-1.706;2023-03-21T08:42:53;10.63;;;2.47;;
11034;SDS011;5571;48.110;-1.706;2023-03-21T08:45:19;8.43;;;2.33;;
11034;SDS011;5571;48.110;-1.706;2023-03-21T08:47:45;6.90;;;2.10;;
11034;SDS011;5571;48.110;-1.706;2023-03-21T08:50:12;7.20;;;2.00;;
11034;SDS011;5571;48.110;-1.706;2023-03-21T08:52:40;7.60;;;1.83;;
11034;SDS011;5571;48.110;-1.706;2023-03-21T08:55:06;6.33;;;2.30;;
11034;SDS011;5571;48.110;-1.706;2023-03-21T08:57:32;9.93;;;2.47;;
11034;SDS011;5571;48.110;-1.706;2023-03-21T08:59:57;8.80;;;2.10;;
11034;SDS011;5571;48.110;-1.706;2023-03-21T09:02:23;8.03;;;2.27;;
11034;SDS011;5571;48.110;-1.706;2023-03-21T09:04:49;9.27;;;2.20;;
11034;SDS011;5571;48.110;-1.706;2023-03-21T09:07:18;11.40;;;2.60;;
11034;SDS011;5571;48.110;-1.706;2023-03-21T09:09:44;12.97;;;2.60;;
11034;SDS011;5571;48.110;-1.706;2023-03-21T09:12:10;10.93;;;2.20;;
11034;SDS011;5571;48.110;-1.706;2023-03-21T09:14:35;10.73;;;2.37;;
11034;SDS011;5571;48.110;-1.706;2023-03-21T09:17:01;12.10;;;2.90;;
11034;SDS011;5571;48.110;-1.706;2023-03-21T09:19:27;8.27;;;2.37;;
11034;SDS011;5571;48.110;-1.706;2023-03-21T09:21:54;10.63;;;2.40;;
11034;SDS011;5571;48.110;-1.706;2023-03-21T09:24:21;10.17;;;2.57;;
11034;SDS011;5571;48.110;-1.706;2023-03-21T09:26:48;14.40;;;2.47;;
11034;SDS011;5571;48.110;-1.706;2023-03-21T09:29:16;15.63;;;2.77;;
11034;SDS011;5571;48.110;-1.706;2023-03-21T09:31:43;15.13;;;2.63;;
11034;SDS011;5571;48.110;-1.706;2023-03-21T09:34:10;16.03;;;2.77;;
11034;SDS011;5571;48.110;-1.706;2023-03-21T09:36:38;11.03;;;2.53;;
11034;SDS011;5571;48.110;-1.706;2023-03-21T09:39:06;9.67;;;2.57;;
11034;SDS011;5571;48.110;-1.706;2023-03-21T09:41:47;11.93;;;2.70;;
11034;SDS011;5571;48.110;-1.706;2023-03-21T09:44:41;9.27;;;2.43;;
11034;SDS011;5571;48.110;-1.706;2023-03-21T09:47:23;7.93;;;2.33;;
11034;SDS011;5571;48.110;-1.706;2023-03-21T09:50:01;9.87;;;2.60;;
11034;SDS011;5571;48.110;-1.706;2023-03-21T09:52:59;15.40;;;3.23;;
11034;SDS011;5571;48.110;-1.706;2023-03-21T09:55:30;9.00;;;2.60;;
11034;SDS011;5571;48.110;-1.706;2023-03-21T10:00:56;15.17;;;2.73;;
11034;SDS011;5571;48.110;-1.706;2023-03-21T10:03:31;11.67;;;2.57;;
11034;SDS011;5571;48.110;-1.706;2023-03-21T10:06:19;15.60;;;2.93;;
11034;SDS011;5571;48.110;-1.706;2023-03-21T10:08:52;10.30;;;2.77;;
11034;SDS011;5571;48.110;-1.706;2023-03-21T10:11:31;14.83;;;2.70;;
11034;SDS011;5571;48.110;-1.706;2023-03-21T10:16:56;13.57;;;2.73;;
11034;SDS011;5571;48.110;-1.706;2023-03-21T10:19:29;13.83;;;2.63;;
11034;SDS011;5571;48.110;-1.706;2023-03-21T10:21:55;15.17;;;3.47;;
11034;SDS011;5571;48.110;-1.706;2023-03-21T10:24:22;10.97;;;2.50;;
11034;SDS011;5571;48.110;-1.706;2023-03-21T10:26:52;10.93;;;2.60;;
11034;SDS011;5571;48.110;-1.706;2023-03-21T10:29:20;9.43;;;2.60;;
11034;SDS011;5571;48.110;-1.706;2023-03-21T10:31:49;11.87;;;2.70;;
11034;SDS011;5571;48.110;-1.706;2023-03-21T10:36:44;11.97;;;2.90;;
11034;SDS011;5571;48.110;-1.706;2023-03-21T10:39:27;12.73;;;3.13;;
11034;SDS011;5571;48.110;-1.706;2023-03-21T10:41:58;10.23;;;2.43;;
11034;SDS011;5571;48.110;-1.706;2023-03-21T10:44:27;10.17;;;2.80;;
11034;SDS011;5571;48.110;-1.706;2023-03-21T10:46:56;12.73;;;2.77;;
11034;SDS011;5571;48.110;-1.706;2023-03-21T10:49:28;7.00;;;2.33;;
11034;SDS011;5571;48.110;-1.706;2023-03-21T10:51:56;11.57;;;3.03;;
11034;SDS011;5571;48.110;-1.706;2023-03-21T10:54:27;8.47;;;2.60;;
11034;SDS011;5571;48.110;-1.706;2023-03-21T10:59:33;9.17;;;2.70;;
11034;SDS011;5571;48.110;-1.706;2023-03-21T11:02:02;8.60;;;2.20;;
11034;SDS011;5571;48.110;-1.706;2023-03-21T11:04:30;11.07;;;2.50;;
11034;SDS011;5571;48.110;-1.706;2023-03-21T11:06:57;10.63;;;2.30;;
11034;SDS011;5571;48.110;-1.706;2023-03-21T11:09:26;7.80;;;2.57;;
11034;SDS011;5571;48.110;-1.706;2023-03-21T11:12:28;9.93;;;2.53;;
11034;SDS011;5571;48.110;-1.706;2023-03-21T11:14:57;10.47;;;2.77;;
11034;SDS011;5571;48.110;-1.706;2023-03-21T11:17:52;7.70;;;2.47;;
11034;SDS011;5571;48.110;-1.706;2023-03-21T11:20:19;8.53;;;2.43;;
11034;SDS011;5571;48.110;-1.706;2023-03-21T11:22:45;10.87;;;2.47;;
11034;SDS011;5571;48.110;-1.706;2023-03-21T11:25:24;11.07;;;2.67;;
11034;SDS011;5571;48.110;-1.706;2023-03-21T11:27:57;10.57;;;2.37;;
11034;SDS011;5571;48.110;-1.706;2023-03-21T11:30:28;9.10;;;2.13;;
11034;SDS011;5571;48.110;-1.706;2023-03-21T11:32:58;9.07;;;1.90;;
11034;SDS011;5571;48.110;-1.706;2023-03-21T11:35:34;8.33;;;2.17;;
11034;SDS011;5571;48.110;-1.706;2023-03-21T11:38:01;11.20;;;2.20;;
11034;SDS011;5571;48.110;-1.706;2023-03-21T11:40:29;12.03;;;2.90;;
11034;SDS011;5571;48.110;-1.706;2023-03-21T11:43:00;7.70;;;2.10;;
11034;SDS011;5571;48.110;-1.706;2023-03-21T11:45:28;10.53;;;2.50;;
11034;SDS011;5571;48.110;-1.706;2023-03-21T11:47:59;7.13;;;2.43;;
11034;SDS011;5571;48.110;-1.706;2023-03-21T11:55:56;12.30;;;2.90;;
11034;SDS011;5571;48.110;-1.706;2023-03-21T12:12:06;10.20;;;2.47;;
11034;SDS011;5571;48.110;-1.706;2023-03-21T12:17:15;15.65;;;3.05;;
11034;SDS011;5571;48.110;-1.706;2023-03-21T12:19:55;12.87;;;2.70;;
11034;SDS011;5571;48.110;-1.706;2023-03-21T12:22:49;11.97;;;3.17;;
11034;SDS011;5571;48.110;-1.706;2023-03-21T12:25:30;12.23;;;2.67;;
11034;SDS011;5571;48.110;-1.706;2023-03-21T12:44:19;12.90;;;2.50;;
11034;SDS011;5571;48.110;-1.706;2023-03-21T12:47:01;13.27;;;2.40;;
11034;SDS011;5571;48.110;-1.706;2023-03-21T12:49:34;10.80;;;2.63;;
11034;SDS011;5571;48.110;-1.706;2023-03-21T12:52:11;11.90;;;2.60;;
11034;SDS011;5571;48.110;-1.706;2023-03-21T12:54:41;13.70;;;2.53;;
11034;SDS011;5571;48.110;-1.706;2023-03-21T12:57:16;10.67;;;2.27;;
11034;SDS011;5571;48.110;-1.706;2023-03-21T12:59:53;10.63;;;2.50;;
11034;SDS011;5571;48.110;-1.706;2023-03-21T13:07:53;12.10;;;2.70;;
11034;SDS011;5571;48.110;-1.706;2023-03-21T13:10:23;10.80;;;2.87;;
11034;SDS011;5571;48.110;-1.706;2023-03-21T13:15:50;11.90;;;2.57;;
11034;SDS011;5571;48.110;-1.706;2023-03-21T13:20:56;11.57;;;2.77;;
11034;SDS011;5571;48.110;-1.706;2023-03-21T13:23:32;11.60;;;2.87;;
11034;SDS011;5571;48.110;-1.706;2023-03-21T13:26:02;13.87;;;2.93;;
11034;SDS011;5571;48.110;-1.706;2023-03-21T13:28:34;14.60;;;2.90;;
11034;SDS011;5571;48.110;-1.706;2023-03-21T13:31:20;11.53;;;2.73;;
11034;SDS011;5571;48.110;-1.706;2023-03-21T13:33:50;10.43;;;2.77;;
11034;SDS011;5571;48.110;-1.706;2023-03-21T13:36:22;8.93;;;2.40;;
11034;SDS011;5571;48.110;-1.706;2023-03-21T13:38:50;10.97;;;2.73;;
11034;SDS011;5571;48.110;-1.706;2023-03-21T13:41:30;7.80;;;2.47;;
11034;SDS011;5571;48.110;-1.706;2023-03-21T13:54:00;12.97;;;3.37;;
11034;SDS011;5571;48.110;-1.706;2023-03-21T13:59:11;10.73;;;2.63;;
11034;SDS011;5571;48.110;-1.706;2023-03-21T14:04:42;11.30;;;2.47;;
11034;SDS011;5571;48.110;-1.706;2023-03-21T14:07:10;12.27;;;2.87;;
11034;SDS011;5571;48.110;-1.706;2023-03-21T14:09:37;11.00;;;2.57;;
11034;SDS011;5571;48.110;-1.706;2023-03-21T14:12:07;15.83;;;3.10;;
11034;SDS011;5571;48.110;-1.706;2023-03-21T14:14:40;13.47;;;3.50;;
11034;SDS011;5571;48.110;-1.706;2023-03-21T14:19:50;12.60;;;2.77;;
11034;SDS011;5571;48.110;-1.706;2023-03-21T14:22:21;9.20;;;2.57;;
11034;SDS011;5571;48.110;-1.706;2023-03-21T14:24:57;8.87;;;2.27;;
11034;SDS011;5571;48.110;-1.706;2023-03-21T14:27:27;10.77;;;2.97;;
11034;SDS011;5571;48.110;-1.706;2023-03-21T14:29:55;5.27;;;2.00;;
11034;SDS011;5571;48.110;-1.706;2023-03-21T14:32:23;9.15;;;2.55;;
11034;SDS011;5571;48.110;-1.706;2023-03-21T14:34:50;12.43;;;2.70;;
11034;SDS011;5571;48.110;-1.706;2023-03-21T14:37:31;10.10;;;2.90;;
11034;SDS011;5571;48.110;-1.706;2023-03-21T14:40:05;9.87;;;3.23;;
11034;SDS011;5571;48.110;-1.706;2023-03-21T14:42:44;11.77;;;2.40;;
11034;SDS011;5571;48.110;-1.706;2023-03-21T14:45:19;10.03;;;2.40;;
11034;SDS011;5571;48.110;-1.706;2023-03-21T14:53:15;11.13;;;2.27;;
11034;SDS011;5571;48.110;-1.706;2023-03-21T14:55:45;6.93;;;2.10;;
11034;SDS011;5571;48.110;-1.706;2023-03-21T14:58:15;8.20;;;2.07;;
11034;SDS011;5571;48.110;-1.706;2023-03-21T15:00:43;8.73;;;2.20;;
11034;SDS011;5571;48.110;-1.706;2023-03-21T15:03:13;7.47;;;2.57;;
11034;SDS011;5571;48.110;-1.706;2023-03-21T15:05:41;9.97;;;2.77;;
11034;SDS011;5571;48.110;-1.706;2023-03-21T15:08:11;10.03;;;2.77;;
11034;SDS011;5571;48.110;-1.706;2023-03-21T15:10:39;12.87;;;2.40;;
11034;SDS011;5571;48.110;-1.706;2023-03-21T15:13:15;8.43;;;2.53;;
11034;SDS011;5571;48.110;-1.706;2023-03-21T15:15:44;10.83;;;3.63;;
11034;SDS011;5571;48.110;-1.706;2023-03-21T15:18:11;12.70;;;2.90;;
11034;SDS011;5571;48.110;-1.706;2023-03-21T15:20:41;13.68;;;3.47;;
11034;SDS011;5571;48.110;-1.706;2023-03-21T15:23:10;11.87;;;3.57;;
11034;SDS011;5571;48.110;-1.706;2023-03-21T15:25:46;12.60;;;2.80;;
11034;SDS011;5571;48.110;-1.706;2023-03-21T15:28:12;10.27;;;3.17;;
11034;SDS011;5571;48.110;-1.706;2023-03-21T15:30:39;10.97;;;3.00;;
11034;SDS011;5571;48.110;-1.706;2023-03-21T15:33:15;11.33;;;2.70;;
11034;SDS011;5571;48.110;-1.706;2023-03-21T15:35:43;10.53;;;2.40;;
11034;SDS011;5571;48.110;-1.706;2023-03-21T15:38:46;9.43;;;2.67;;
11034;SDS011;5571;48.110;-1.706;2023-03-21T15:43:44;9.53;;;2.57;;
11034;SDS011;5571;48.110;-1.706;2023-03-21T15:46:30;12.30;;;2.83;;
11034;SDS011;5571;48.110;-1.706;2023-03-21T15:49:10;12.57;;;3.30;;
11034;SDS011;5571;48.110;-1.706;2023-03-21T15:54:49;11.63;;;2.40;;
11034;SDS011;5571;48.110;-1.706;2023-03-21T15:57:23;8.50;;;2.47;;
11034;SDS011;5571;48.110;-1.706;2023-03-21T15:59:58;9.50;;;2.53;;
11034;SDS011;5571;48.110;-1.706;2023-03-21T16:02:46;9.00;;;2.43;;
11034;SDS011;5571;48.110;-1.706;2023-03-21T16:05:24;8.40;;;2.60;;
11034;SDS011;5571;48.110;-1.706;2023-03-21T16:08:37;9.33;;;2.43;;
11034;SDS011;5571;48.110;-1.706;2023-03-21T16:10:44;10.97;;;2.63;;
11034;SDS011;5571;48.110;-1.706;2023-03-21T16:13:10;11.23;;;2.70;;
11034;SDS011;5571;48.110;-1.706;2023-03-21T16:15:40;10.93;;;2.50;;
11034;SDS011;5571;48.110;-1.706;2023-03-21T16:18:06;8.30;;;2.47;;
11034;SDS011;5571;48.110;-1.706;2023-03-21T16:20:37;10.87;;;2.63;;
11034;SDS011;5571;48.110;-1.706;2023-03-21T16:23:05;12.83;;;2.97;;
11034;SDS011;5571;48.110;-1.706;2023-03-21T16:25:32;10.30;;;3.37;;
11034;SDS011;5571;48.110;-1.706;2023-03-21T16:27:59;13.20;;;3.23;;
11034;SDS011;5571;48.110;-1.706;2023-03-21T16:30:25;15.93;;;3.13;;
11034;SDS011;5571;48.110;-1.706;2023-03-21T16:32:51;10.20;;;2.17;;
11034;SDS011;5571;48.110;-1.706;2023-03-21T16:35:17;10.50;;;2.37;;
11034;SDS011;5571;48.110;-1.706;2023-03-21T16:37:43;8.40;;;2.20;;
11034;SDS011;5571;48.110;-1.706;2023-03-21T16:40:14;7.23;;;2.30;;
11034;SDS011;5571;48.110;-1.706;2023-03-21T16:42:45;10.50;;;2.10;;
11034;SDS011;5571;48.110;-1.706;2023-03-21T16:45:11;7.90;;;1.93;;
11034;SDS011;5571;48.110;-1.706;2023-03-21T16:47:36;8.37;;;2.50;;
11034;SDS011;5571;48.110;-1.706;2023-03-21T16:50:09;7.97;;;2.17;;
11034;SDS011;5571;48.110;-1.706;2023-03-21T16:52:49;12.13;;;2.40;;
11034;SDS011;5571;48.110;-1.706;2023-03-21T16:55:14;7.83;;;2.17;;
11034;SDS011;5571;48.110;-1.706;2023-03-21T16:57:40;7.50;;;2.00;;
11034;SDS011;5571;48.110;-1.706;2023-03-21T17:00:07;6.07;;;2.17;;